sensor_id;sensor_type;location;lat;lon;timestamp;pressure;altitude;pressure_sealevel;temperature;humidity
24996;BME280;13016;52.162;21.034;2023-07-13T00:01:12;99955.90;;;24.37;61.91
24996;BME280;13016;52.162;21.034;2023-07-13T00:07:13;99947.81;;;24.31;62.19
24996;BME280;13016;52.162;21.034;2023-07-13T00:13:13;99937.00;;;24.19;62.54
24996;BME280;13016;52.162;21.034;2023-07-13T00:19:13;99936.64;;;24.18;62.65
24996;BME280;13016;52.162;21.034;2023-07-13T00:25:14;99935.20;;;24.12;62.74
24996;BME280;13016;52.162;21.034;2023-07-13T00:31:14;99930.13;;;24.18;62.70
24996;BME280;13016;52.162;21.034;2023-07-13T00:37:15;99935.05;;;24.16;62.55
24996;BME280;13016;52.162;21.034;2023-07-13T00:43:18;99925.89;;;24.16;62.53
24996;BME280;13016;52.162;21.034;2023-07-13T00:49:20;99932.67;;;24.15;62.52
24996;BME280;13016;52.162;21.034;2023-07-13T00:55:22;99931.61;;;24.11;62.79
24996;BME280;13016;52.162;21.034;2023-07-13T01:01:22;99924.85;;;24.06;63.05
24996;BME280;13016;52.162;21.034;2023-07-13T01:07:22;99928.51;;;24.03;63.22
24996;BME280;13016;52.162;21.034;2023-07-13T01:13:23;99935.07;;;24.09;63.20
24996;BME280;13016;52.162;21.034;2023-07-13T01:19:37;99941.14;;;24.11;62.73
24996;BME280;13016;52.162;21.034;2023-07-13T01:25:37;99945.18;;;24.03;63.07
24996;BME280;13016;52.162;21.034;2023-07-13T01:31:38;99947.88;;;24.09;62.90
24996;BME280;13016;52.162;21.034;2023-07-13T01:37:38;99952.04;;;23.95;63.30
24996;BME280;13016;52.162;21.034;2023-07-13T01:43:38;99963.34;;;23.97;63.34
24996;BME280;13016;52.162;21.034;2023-07-13T01:49:38;99971.38;;;23.83;63.71
24996;BME280;13016;52.162;21.034;2023-07-13T01:55:39;99966.35;;;23.81;63.60
24996;BME280;13016;52.162;21.034;2023-07-13T02:01:39;99960.15;;;23.77;63.85
24996;BME280;13016;52.162;21.034;2023-07-13T02:07:39;99954.79;;;23.86;63.44
24996;BME280;13016;52.162;21.034;2023-07-13T02:13:40;99969.15;;;23.85;63.49
24996;BME280;13016;52.162;21.034;2023-07-13T02:19:40;99979.98;;;23.78;63.62
24996;BME280;13016;52.162;21.034;2023-07-13T02:25:40;99985.20;;;23.70;63.62
24996;BME280;13016;52.162;21.034;2023-07-13T02:31:41;99983.80;;;23.61;64.15
24996;BME280;13016;52.162;21.034;2023-07-13T02:37:41;99982.38;;;23.63;64.08
24996;BME280;13016;52.162;21.034;2023-07-13T02:43:41;99980.91;;;23.64;64.09
24996;BME280;13016;52.162;21.034;2023-07-13T02:49:41;99978.18;;;23.70;64.03
24996;BME280;13016;52.162;21.034;2023-07-13T02:55:41;99976.16;;;23.68;64.11
24996;BME280;13016;52.162;21.034;2023-07-13T03:01:42;99975.10;;;23.76;63.76
24996;BME280;13016;52.162;21.034;2023-07-13T03:07:42;99976.64;;;23.65;64.12
24996;BME280;13016;52.162;21.034;2023-07-13T03:13:42;99980.09;;;23.65;64.35
24996;BME280;13016;52.162;21.034;2023-07-13T03:19:43;99973.80;;;23.66;64.34
24996;BME280;13016;52.162;21.034;2023-07-13T03:25:43;99974.80;;;23.70;64.25
24996;BME280;13016;52.162;21.034;2023-07-13T03:31:43;99970.98;;;23.70;64.02
24996;BME280;13016;52.162;21.034;2023-07-13T03:37:43;99968.94;;;23.78;64.00
24996;BME280;13016;52.162;21.034;2023-07-13T03:43:43;99958.31;;;23.86;63.86
24996;BME280;13016;52.162;21.034;2023-07-13T03:49:44;99957.80;;;24.02;63.47
24996;BME280;13016;52.162;21.034;2023-07-13T03:55:44;99959.08;;;24.16;62.92
24996;BME280;13016;52.162;21.034;2023-07-13T04:01:44;99958.88;;;24.23;62.78
24996;BME280;13016;52.162;21.034;2023-07-13T04:07:45;99954.54;;;24.37;62.73
24996;BME280;13016;52.162;21.034;2023-07-13T04:13:46;99965.34;;;24.56;62.26
24996;BME280;13016;52.162;21.034;2023-07-13T04:19:47;99978.27;;;24.71;62.07
24996;BME280;13016;52.162;21.034;2023-07-13T04:25:49;99986.75;;;24.95;61.94
24996;BME280;13016;52.162;21.034;2023-07-13T04:32:16;99999.84;;;25.32;61.42
24996;BME280;13016;52.162;21.034;2023-07-13T04:38:20;100004.91;;;25.73;60.28
24996;BME280;13016;52.162;21.034;2023-07-13T04:44:20;100011.88;;;25.96;59.73
24996;BME280;13016;52.162;21.034;2023-07-13T04:50:39;100025.92;;;26.15;59.55
24996;BME280;13016;52.162;21.034;2023-07-13T04:56:39;100022.23;;;26.32;59.25
24996;BME280;13016;52.162;21.034;2023-07-13T05:02:40;100021.73;;;26.52;58.92
24996;BME280;13016;52.162;21.034;2023-07-13T05:08:58;100025.61;;;26.71;58.06
24996;BME280;13016;52.162;21.034;2023-07-13T05:15:02;100037.23;;;26.71;57.74
24996;BME280;13016;52.162;21.034;2023-07-13T05:38:59;100071.75;;;27.64;55.43
24996;BME280;13016;52.162;21.034;2023-07-13T05:45:27;100078.52;;;27.84;54.46
24996;BME280;13016;52.162;21.034;2023-07-13T05:58:05;100085.99;;;28.11;54.24
24996;BME280;13016;52.162;21.034;2023-07-13T06:04:39;100080.16;;;28.73;53.11
24996;BME280;13016;52.162;21.034;2023-07-13T06:26:49;100081.67;;;30.31;46.98
24996;BME280;13016;52.162;21.034;2023-07-13T06:50:29;100064.38;;;31.22;43.12
24996;BME280;13016;52.162;21.034;2023-07-13T06:56:41;100066.65;;;31.64;40.23
24996;BME280;13016;52.162;21.034;2023-07-13T07:02:41;100070.34;;;31.70;38.40
24996;BME280;13016;52.162;21.034;2023-07-13T07:08:42;100070.67;;;32.17;37.32
24996;BME280;13016;52.162;21.034;2023-07-13T07:15:07;100069.84;;;32.34;35.90
24996;BME280;13016;52.162;21.034;2023-07-13T07:21:07;100068.98;;;32.11;36.19
24996;BME280;13016;52.162;21.034;2023-07-13T09:31:45;100055.92;;;34.83;32.32
24996;BME280;13016;52.162;21.034;2023-07-13T09:37:48;100052.70;;;34.30;33.04
24996;BME280;13016;52.162;21.034;2023-07-13T09:50:13;100029.41;;;34.45;32.77
24996;BME280;13016;52.162;21.034;2023-07-13T09:56:44;100022.92;;;34.46;32.44
24996;BME280;13016;52.162;21.034;2023-07-13T10:03:04;100019.05;;;34.22;32.50
24996;BME280;13016;52.162;21.034;2023-07-13T10:09:07;100020.42;;;33.16;31.90
24996;BME280;13016;52.162;21.034;2023-07-13T10:15:15;100007.89;;;32.08;33.00
24996;BME280;13016;52.162;21.034;2023-07-13T10:21:18;100001.53;;;31.36;33.83
24996;BME280;13016;52.162;21.034;2023-07-13T10:27:21;100000.41;;;30.95;34.92
24996;BME280;13016;52.162;21.034;2023-07-13T10:39:31;99995.39;;;30.05;36.21
24996;BME280;13016;52.162;21.034;2023-07-13T10:45:54;99992.20;;;29.68;36.72
24996;BME280;13016;52.162;21.034;2023-07-13T10:51:56;99988.89;;;29.45;37.38
24996;BME280;13016;52.162;21.034;2023-07-13T10:58:00;99989.67;;;29.27;37.40
24996;BME280;13016;52.162;21.034;2023-07-13T11:04:04;100028.45;;;29.02;37.29
24996;BME280;13016;52.162;21.034;2023-07-13T11:10:46;100100.76;;;28.85;40.62
24996;BME280;13016;52.162;21.034;2023-07-13T12:05:20;100143.92;;;24.89;66.12
24996;BME280;13016;52.162;21.034;2023-07-13T12:11:21;100150.29;;;24.75;67.40
24996;BME280;13016;52.162;21.034;2023-07-13T12:59:53;100106.95;;;24.77;68.63
24996;BME280;13016;52.162;21.034;2023-07-13T13:17:18;100110.94;;;24.68;69.54
24996;BME280;13016;52.162;21.034;2023-07-13T13:23:21;100116.48;;;24.76;70.53
24996;BME280;13016;52.162;21.034;2023-07-13T13:29:36;100127.32;;;24.81;70.30
24996;BME280;13016;52.162;21.034;2023-07-13T15:23:31;100181.66;;;25.17;62.57
24996;BME280;13016;52.162;21.034;2023-07-13T15:29:32;100165.29;;;24.85;63.42
24996;BME280;13016;52.162;21.034;2023-07-13T15:35:34;100163.21;;;24.62;64.27
24996;BME280;13016;52.162;21.034;2023-07-13T15:41:35;100163.90;;;24.66;64.99
24996;BME280;13016;52.162;21.034;2023-07-13T15:47:46;100156.58;;;24.66;64.84
24996;BME280;13016;52.162;21.034;2023-07-13T15:53:49;100162.73;;;24.62;64.88
24996;BME280;13016;52.162;21.034;2023-07-13T16:06:36;100195.14;;;24.76;66.38
24996;BME280;13016;52.162;21.034;2023-07-13T16:12:38;100194.34;;;24.85;66.70
24996;BME280;13016;52.162;21.034;2023-07-13T16:18:38;100199.77;;;24.82;66.64
24996;BME280;13016;52.162;21.034;2023-07-13T16:24:39;100199.93;;;24.82;66.91
24996;BME280;13016;52.162;21.034;2023-07-13T16:30:59;100205.43;;;24.76;66.43
24996;BME280;13016;52.162;21.034;2023-07-13T16:37:24;100208.48;;;24.65;66.23
24996;BME280;13016;52.162;21.034;2023-07-13T16:43:26;100208.57;;;24.57;66.15
24996;BME280;13016;52.162;21.034;2023-07-13T16:49:28;100209.85;;;24.67;67.19
24996;BME280;13016;52.162;21.034;2023-07-13T16:55:34;100208.58;;;24.60;67.01
24996;BME280;13016;52.162;21.034;2023-07-13T17:01:34;100209.19;;;24.63;67.18
24996;BME280;13016;52.162;21.034;2023-07-13T17:07:34;100207.02;;;24.54;67.18
24996;BME280;13016;52.162;21.034;2023-07-13T17:13:41;100211.32;;;24.54;67.06
24996;BME280;13016;52.162;21.034;2023-07-13T17:19:42;100213.42;;;24.53;67.20
24996;BME280;13016;52.162;21.034;2023-07-13T17:39:00;100228.76;;;24.69;67.76
24996;BME280;13016;52.162;21.034;2023-07-13T17:45:08;100233.37;;;24.83;67.29
24996;BME280;13016;52.162;21.034;2023-07-13T18:16:34;100212.33;;;25.17;64.52
24996;BME280;13016;52.162;21.034;2023-07-13T18:35:28;100211.17;;;25.49;63.99
24996;BME280;13016;52.162;21.034;2023-07-13T18:41:27;100218.86;;;25.20;63.55
24996;BME280;13016;52.162;21.034;2023-07-13T18:47:38;100225.20;;;24.83;65.07
24996;BME280;13016;52.162;21.034;2023-07-13T18:54:01;100225.10;;;24.59;66.23
24996;BME280;13016;52.162;21.034;2023-07-13T19:00:02;100229.79;;;24.48;67.01
24996;BME280;13016;52.162;21.034;2023-07-13T19:06:04;100225.34;;;24.46;67.13
